Three Springs, PA (17264)

1:06 AM EST on December 29, 2014 (GMT -0500)
Wood-Robertsdale | Change Station
CLOSE
Current Station
Personal Weather Station
Location: Wood, PA
Elevation: 1877 ft
Nearby Weather Stations

Elev 1877 ft 40.17 °N, 78.14 °W | Updated 19 seconds ago

Overcast
Overcast
32.7 °F
Feels Like 33 °F
N
2.0
Wind Variable Wind from NW
Gusts 2.0 mph

Today
High -- | Low -- °F
--% Chance of Precip.
Yesterday
High -- | Low -- °F
Precip. -- in
7:33 AM 4:54 PM
First Quarter, 55% visible
Pressure 30.15 in
Visibility 10.0 miles
Clouds Overcast 3300 ft
Windchill 33 °F
Dew Point 25 °F
Humidity 72%
Rainfall 0.00 in
Snow Depth Not available.
UV 0 out of 12
Pollen .10 out of 12
Air Quality Not available.
Flu Activity Not available.
METAR KAOO 290553Z AUTO 00000KT 10SM OVC033 02/M03 A3011 RMK AO2 SLP208 T00171028 10028 20011 50003

More Conditions Fewer Conditions

Pressure 30.15 in
Visibility 10.0 miles
Clouds Overcast 3300 ft
Windchill 33 °F
Dew Point 25 °F
Humidity 72%
Rainfall 0.00 in
Snow Depth Not available.
UV 0 out of 12
Pollen .10 out of 12
Air Quality Not available.
Flu Activity Not available.
METAR KAOO 290553Z AUTO 00000KT 10SM OVC033 02/M03 A3011 RMK AO2 SLP208 T00171028 10028 20011 50003

More Conditions Fewer Conditions

10-Day Weather Forecast

Almanac

Astronomy

Dec. 29, 2014 Rise Set
Actual Time
Civil Twilight
Nautical Twilight
Astronomical Twilight
Moon
Length of Visible Light
Length of Day
Tomorrow will be .
, % of the Moon is Illuminated

Today's Extremes

State Highs State Lows

Community

WunderPhotos

Upload Photos

1,781,544 photos uploaded!

WunderBlogs® & News

Nearby

Air Quality

  Air Quality AQ Index Pollutant
Not available.

Snow Depth

Station Depth Elevation

Earthquake Activity

City Distance Mag. Time & Date
Minimum magnitude displayed is 2.5.

Coastal Water Temperatures

Place Temperature

Nearby Weather Stations